Time;durP1;ratioP1;P1;durP2;ratioP2;P2;SDS_P1;SDS_P2;PMS_P1;PMS_P2;Temp;Humidity;BMP_temperature;BMP_pressure;BME280_temperature;BME280_humidity;BME280_pressure;Samples;Min_cycle;Max_cycle;Signal;HPM_P1;HPM_P2
2022/09/29 00:02:13;;;;;;;6.68;5.03;;;7.50;99.90;;;;;;4863551;29;20369;-65
2022/09/29 00:04:39;;;;;;;7.70;5.25;;;7.60;99.90;;;;;;4862012;29;20049;-65
2022/09/29 00:07:04;;;;;;;7.60;5.40;;;7.50;99.90;;;;;;4882385;29;20432;-63
2022/09/29 00:09:31;;;;;;;6.35;4.72;;;7.50;99.90;;;;;;4896271;29;20479;-65
2022/09/29 00:11:56;;;;;;;7.38;5.50;;;7.50;99.90;;;;;;4879151;29;20076;-64
2022/09/29 00:14:23;;;;;;;8.80;5.35;;;7.50;99.90;;;;;;4880443;29;20052;-64
2022/09/29 00:16:49;;;;;;;8.15;5.90;;;7.50;99.90;;;;;;4874067;29;20049;-64
2022/09/29 00:19:15;;;;;;;10.13;6.85;;;7.50;99.90;;;;;;4881327;29;20388;-63
2022/09/29 00:21:41;;;;;;;11.63;7.47;;;7.60;99.90;;;;;;4872440;29;20152;-63
2022/09/29 00:24:06;;;;;;;8.88;6.75;;;7.60;99.90;;;;;;4882206;29;20515;-64
2022/09/29 00:26:32;;;;;;;10.75;7.22;;;7.60;99.90;;;;;;4884155;29;20033;-64
2022/09/29 00:28:59;;;;;;;11.05;7.45;;;7.60;99.90;;;;;;4882884;29;20045;-65
2022/09/29 00:31:28;;;;;;;10.82;8.35;;;7.60;99.90;;;;;;4882119;29;20384;-64
2022/09/29 00:33:53;;;;;;;;;;;7.60;99.90;;;;;;4883266;29;20033;-64
2022/09/29 00:36:20;;;;;;;10.23;7.20;;;7.80;99.90;;;;;;4890241;29;20390;-63
2022/09/29 00:38:47;;;;;;;11.40;7.00;;;7.50;99.90;;;;;;4885472;29;20155;-63
2022/09/29 00:41:16;;;;;;;8.73;6.57;;;7.50;99.90;;;;;;4875911;29;20516;-62
2022/09/29 00:43:48;;;;;;;9.48;6.72;;;7.50;99.90;;;;;;4881599;29;20040;-64
2022/09/29 00:46:18;;;;;;;10.23;6.55;;;7.50;99.90;;;;;;4884864;29;20079;-64
2022/09/29 00:48:45;;;;;;;8.38;6.28;;;7.40;99.90;;;;;;4899223;29;20040;-64
2022/09/29 00:51:12;;;;;;;9.27;6.47;;;7.40;99.90;;;;;;4880313;29;20418;-63
2022/09/29 00:53:39;;;;;;;8.52;6.50;;;7.40;99.90;;;;;;4879892;29;20088;-63
2022/09/29 00:56:10;;;;;;;8.75;6.53;;;7.40;99.90;;;;;;4883267;29;20099;-64
2022/09/29 00:58:53;;;;;;;11.85;7.53;;;7.40;99.90;;;;;;4881866;29;20049;-64
2022/09/29 01:01:22;;;;;;;8.95;7.03;;;7.40;99.90;;;;;;4882462;29;20056;-64
2022/09/29 01:03:51;;;;;;;10.70;7.97;;;7.40;99.90;;;;;;4883029;29;20077;-63
2022/09/29 01:06:23;;;;;;;13.05;8.73;;;7.30;99.90;;;;;;4882982;29;20500;-63
2022/09/29 01:09:13;;;;;;;13.25;9.13;;;7.40;99.90;;;;;;4881205;29;20057;-64
2022/09/29 01:11:39;;;;;;;11.13;8.15;;;7.40;99.90;;;;;;4883351;29;20049;-65
2022/09/29 01:14:07;;;;;;;12.32;8.98;;;7.40;99.90;;;;;;4866430;29;20045;-64
2022/09/29 01:16:36;;;;;;;11.35;8.45;;;7.40;99.90;;;;;;4867617;29;20045;-64
2022/09/29 01:19:06;;;;;;;;;;;7.40;99.90;;;;;;4886431;29;20496;-65
2022/09/29 01:21:43;;;;;;;13.23;8.90;;;7.40;99.90;;;;;;4880871;29;20358;-64
2022/09/29 01:24:28;;;;;;;10.65;8.20;;;7.40;99.90;;;;;;4878373;29;20175;-64
2022/09/29 01:27:26;;;;;;;13.20;8.68;;;7.40;99.90;;;;;;4867635;29;20053;-64
2022/09/29 01:30:10;;;;;;;11.77;9.18;;;7.40;99.90;;;;;;4873208;29;20052;-64
2022/09/29 01:32:54;;;;;;;12.07;8.48;;;7.40;99.90;;;;;;4879720;29;20476;-65
2022/09/29 02:01:57;;;;;;;11.50;8.57;;;7.20;99.90;;;;;;5921225;23;20027;-64
2022/09/29 02:04:30;;;;;;;15.75;10.80;;;7.20;99.90;;;;;;4915611;29;20112;-64
2022/09/29 02:07:04;;;;;;;16.20;10.48;;;7.40;99.90;;;;;;4913827;29;20204;-65
2022/09/29 02:09:38;;;;;;;13.57;10.85;;;7.20;99.90;;;;;;4908878;29;20372;-64
2022/09/29 02:12:06;;;;;;;16.38;11.13;;;7.30;99.90;;;;;;4916253;29;20048;-63
2022/09/29 02:14:44;;;;;;;12.68;10.63;;;7.20;99.90;;;;;;4902752;29;20044;-63
2022/09/29 02:17:29;;;;;;;14.57;11.10;;;7.30;99.90;;;;;;4914103;29;20052;-64
2022/09/29 02:19:54;;;;;;;20.10;12.90;;;7.30;99.90;;;;;;4907186;29;20044;-64
2022/09/29 02:22:20;;;;;;;18.70;12.00;;;7.30;99.90;;;;;;4904861;29;20128;-64
2022/09/29 02:24:50;;;;;;;14.70;11.18;;;7.30;99.90;;;;;;4912806;29;20052;-65
2022/09/29 02:27:16;;;;;;;17.08;11.90;;;7.30;99.90;;;;;;4904608;29;20569;-64
2022/09/29 02:29:45;;;;;;;15.40;11.25;;;7.30;99.90;;;;;;4898118;29;20040;-63
2022/09/29 02:32:11;;;;;;;;;;;7.30;99.90;;;;;;4903386;29;20036;-64
2022/09/29 02:34:42;;;;;;;17.00;11.68;;;7.30;99.90;;;;;;4906335;29;19923;-65
2022/09/29 02:37:24;;;;;;;19.10;12.98;;;7.30;99.90;;;;;;4905157;29;20076;-64
2022/09/29 02:40:17;;;;;;;14.50;11.10;;;7.30;99.90;;;;;;4915726;29;20048;-64
2022/09/29 02:43:11;;;;;;;18.73;12.27;;;7.30;99.90;;;;;;4896426;29;20040;-64
2022/09/29 02:46:06;;;;;;;19.60;13.13;;;7.30;99.90;;;;;;4904068;29;20111;-65
2022/09/29 02:48:51;;;;;;;20.05;12.15;;;7.30;99.90;;;;;;4912172;29;20107;-64
2022/09/29 02:51:38;;;;;;;16.30;11.25;;;7.30;99.90;;;;;;4907828;29;20052;-64
2022/09/29 02:54:12;;;;;;;16.48;11.40;;;7.30;99.90;;;;;;4905599;29;20040;-65
2022/09/29 02:57:35;;;;;;;16.30;11.50;;;7.20;99.90;;;;;;4909678;29;20822;-64
2022/09/29 03:00:09;;;;;;;14.35;10.63;;;7.20;99.90;;;;;;4878200;29;20086;-64
2022/09/29 03:02:39;;;;;;;15.45;10.85;;;7.10;99.90;;;;;;4915393;29;20487;-64
2022/09/29 03:05:09;;;;;;;20.17;11.05;;;7.10;99.90;;;;;;4914945;29;20123;-64
2022/09/29 03:07:36;;;;;;;18.90;10.88;;;7.10;99.90;;;;;;4916595;29;20144;-64
2022/09/29 03:10:02;;;;;;;15.33;10.97;;;7.10;99.90;;;;;;4903811;29;20088;-65
2022/09/29 03:12:28;;;;;;;17.45;11.45;;;7.00;99.90;;;;;;4902440;29;20045;-64
2022/09/29 03:14:54;;;;;;;17.58;11.45;;;7.00;99.90;;;;;;4909978;29;20052;-64
2022/09/29 03:17:19;;;;;;;15.02;10.88;;;7.00;99.90;;;;;;4899604;29;20094;-64
2022/09/29 03:19:45;;;;;;;15.63;11.38;;;6.90;99.90;;;;;;4905089;29;20123;-63
2022/09/29 03:22:11;;;;;;;15.57;11.30;;;6.90;99.90;;;;;;4899170;29;20177;-63
2022/09/29 03:24:36;;;;;;;16.67;11.82;;;6.90;99.90;;;;;;4914974;29;20052;-65
2022/09/29 03:27:03;;;;;;;15.32;11.63;;;6.90;99.90;;;;;;4916842;29;20040;-64
2022/09/29 03:29:28;;;;;;;22.30;12.10;;;6.90;99.90;;;;;;4910313;29;20122;-64
2022/09/29 03:31:54;;;;;;;18.58;11.00;;;6.90;99.90;;;;;;4912123;29;20131;-64
2022/09/29 03:34:20;;;;;;;15.57;11.52;;;6.80;99.90;;;;;;4902171;29;20077;-65
2022/09/29 03:36:46;;;;;;;18.02;11.85;;;6.80;99.90;;;;;;4900399;29;20040;-64
2022/09/29 03:39:11;;;;;;;18.23;12.63;;;6.80;99.90;;;;;;4916945;29;20059;-64
2022/09/29 03:41:37;;;;;;;16.15;11.85;;;6.90;99.90;;;;;;4911343;29;20107;-64
2022/09/29 03:44:02;;;;;;;15.00;11.98;;;6.80;99.90;;;;;;4911756;29;20048;-63
2022/09/29 03:46:28;;;;;;;16.60;12.45;;;6.80;99.90;;;;;;4911536;29;20465;-63
2022/09/29 03:48:54;;;;;;;18.00;12.73;;;6.80;99.90;;;;;;4909313;29;20468;-64
2022/09/29 03:51:19;;;;;;;16.98;11.93;;;6.80;99.90;;;;;;4909172;29;20135;-64
2022/09/29 03:53:45;;;;;;;17.63;11.75;;;6.80;99.90;;;;;;4915367;29;20471;-64
2022/09/29 03:56:11;;;;;;;19.95;12.82;;;6.70;99.90;;;;;;4907266;29;20048;-64
2022/09/29 03:58:36;;;;;;;18.77;12.75;;;6.70;99.90;;;;;;4914495;29;20135;-64
2022/09/29 04:01:02;;;;;;;20.20;13.07;;;6.70;99.90;;;;;;4885452;29;20459;-65
2022/09/29 04:03:28;;;;;;;15.43;11.70;;;6.70;99.90;;;;;;4904505;29;20414;-64
2022/09/29 04:05:53;;;;;;;19.75;13.55;;;6.70;99.90;;;;;;4919576;29;20075;-64
2022/09/29 04:08:19;;;;;;;16.48;11.80;;;6.70;99.90;;;;;;4919284;29;20059;-64
2022/09/29 04:10:47;;;;;;;20.35;13.05;;;6.70;99.90;;;;;;4901397;29;20053;-63
2022/09/29 04:13:14;;;;;;;17.85;12.90;;;6.70;99.90;;;;;;4907249;29;20133;-63
2022/09/29 04:15:40;;;;;;;16.80;12.20;;;6.60;99.90;;;;;;4916284;29;20040;-65
2022/09/29 04:18:06;;;;;;;21.65;13.82;;;6.70;99.90;;;;;;4911119;29;20072;-64
2022/09/29 04:20:32;;;;;;;20.08;13.10;;;6.80;99.90;;;;;;4907708;29;20175;-64
2022/09/29 04:22:59;;;;;;;20.23;13.35;;;6.70;99.90;;;;;;4912401;29;20059;-64
2022/09/29 04:25:26;;;;;;;19.93;12.93;;;6.70;99.90;;;;;;4907304;29;20102;-64
2022/09/29 04:27:52;;;;;;;22.48;14.02;;;6.70;99.90;;;;;;4881111;29;20289;-65
2022/09/29 04:30:18;;;;;;;21.42;13.73;;;6.70;99.90;;;;;;4905995;29;20051;-64
2022/09/29 04:32:43;;;;;;;17.55;13.15;;;6.70;99.90;;;;;;4901209;29;20044;-64
2022/09/29 04:35:09;;;;;;;18.25;13.02;;;6.70;99.90;;;;;;4900937;29;20119;-64
2022/09/29 04:37:35;;;;;;;16.27;12.32;;;6.70;99.90;;;;;;4914113;29;20080;-63
2022/09/29 04:40:02;;;;;;;14.80;12.05;;;6.70;99.90;;;;;;4913048;29;20048;-64
2022/09/29 04:42:28;;;;;;;15.18;11.30;;;6.60;99.90;;;;;;4903774;29;20055;-63
2022/09/29 04:44:54;;;;;;;17.38;12.07;;;6.60;99.90;;;;;;4913157;29;20044;-64
2022/09/29 04:47:20;;;;;;;17.85;11.98;;;6.80;99.90;;;;;;4911962;29;20048;-64
2022/09/29 04:49:45;;;;;;;16.55;12.77;;;6.60;99.90;;;;;;4911094;29;20095;-64
2022/09/29 04:52:12;;;;;;;18.48;13.70;;;6.60;99.90;;;;;;4921327;29;20044;-64
2022/09/29 04:54:38;;;;;;;15.57;12.23;;;6.70;99.90;;;;;;4913537;29;20131;-64
2022/09/29 04:57:04;;;;;;;17.83;13.45;;;6.60;99.90;;;;;;4917996;29;20511;-62
2022/09/29 04:59:29;;;;;;;21.25;14.18;;;6.80;99.90;;;;;;4908788;29;20486;-63
2022/09/29 05:01:55;;;;;;;18.83;13.93;;;6.60;99.90;;;;;;4922405;29;20052;-66
2022/09/29 05:04:21;;;;;;;20.98;15.15;;;6.60;99.90;;;;;;4911898;29;20067;-64
2022/09/29 05:06:46;;;;;;;20.45;15.07;;;6.70;99.90;;;;;;4919555;29;20060;-63
2022/09/29 05:09:12;;;;;;;19.70;14.07;;;6.70;99.90;;;;;;4903556;29;20055;-63
2022/09/29 05:11:38;;;;;;;21.85;13.85;;;6.70;99.90;;;;;;4904122;29;20141;-63
2022/09/29 05:14:04;;;;;;;22.77;14.30;;;6.70;99.90;;;;;;4907138;29;20095;-65
2022/09/29 05:16:30;;;;;;;21.02;14.82;;;6.70;99.90;;;;;;4914890;29;20050;-64
2022/09/29 05:18:56;;;;;;;25.50;15.85;;;6.70;99.90;;;;;;4911175;29;20053;-63
2022/09/29 05:21:22;;;;;;;24.60;15.85;;;6.70;99.90;;;;;;4909250;29;20119;-64
2022/09/29 05:23:48;;;;;;;22.30;14.85;;;6.70;99.90;;;;;;4888541;29;20071;-64
2022/09/29 05:26:13;;;;;;;21.88;15.63;;;6.70;99.90;;;;;;4904883;29;20439;-64
2022/09/29 05:28:43;;;;;;;23.73;15.23;;;6.70;99.90;;;;;;4911255;29;20388;-63
2022/09/29 05:31:10;;;;;;;21.15;14.73;;;6.70;99.90;;;;;;4913514;29;20448;-63
2022/09/29 05:33:36;;;;;;;24.55;15.40;;;6.80;99.90;;;;;;4903388;29;20052;-64
2022/09/29 05:36:10;;;;;;;22.95;15.25;;;6.70;99.90;;;;;;4910697;29;20040;-65
2022/09/29 05:38:36;;;;;;;21.65;15.55;;;6.60;99.90;;;;;;4910437;29;20041;-64
2022/09/29 05:41:07;;;;;;;21.63;14.88;;;6.70;99.90;;;;;;4907009;29;20697;-64
2022/09/29 05:43:33;;;;;;;21.88;15.32;;;6.60;99.90;;;;;;4889966;29;20436;-63
2022/09/29 05:46:00;;;;;;;22.10;14.68;;;6.60;99.90;;;;;;4908064;29;20127;-64
2022/09/29 05:48:29;;;;;;;23.38;15.85;;;6.60;99.90;;;;;;4897866;29;20065;-65
2022/09/29 05:50:58;;;;;;;22.45;14.95;;;6.60;99.90;;;;;;4901998;29;20084;-65
2022/09/29 05:53:24;;;;;;;24.30;15.80;;;6.70;99.90;;;;;;4915652;29;20044;-65
2022/09/29 05:55:50;;;;;;;23.58;15.70;;;6.70;99.90;;;;;;4906526;29;20048;-65
2022/09/29 05:58:16;;;;;;;23.65;16.08;;;6.70;99.90;;;;;;4897895;29;20139;-65
2022/09/29 06:00:42;;;;;;;28.08;16.88;;;6.70;99.90;;;;;;4913156;29;20056;-64
2022/09/29 06:03:08;;;;;;;26.38;16.90;;;7.00;99.90;;;;;;4906358;29;20052;-64
2022/09/29 06:05:38;;;;;;;29.30;17.45;;;6.80;99.90;;;;;;4910553;29;20051;-64
2022/09/29 06:08:04;;;;;;;27.80;17.65;;;6.80;99.90;;;;;;4902770;29;20052;-64
2022/09/29 06:10:30;;;;;;;26.15;16.73;;;6.80;99.90;;;;;;4915813;29;20067;-66
2022/09/29 06:12:56;;;;;;;28.30;16.58;;;6.80;99.90;;;;;;4910315;29;20055;-63
2022/09/29 06:15:22;;;;;;;29.55;17.75;;;6.80;99.90;;;;;;4913600;29;20036;-64
2022/09/29 06:17:55;;;;;;;28.85;18.50;;;6.90;99.90;;;;;;4904642;29;20048;-64
2022/09/29 06:20:20;;;;;;;26.20;17.40;;;6.90;99.90;;;;;;4900009;29;20068;-64
2022/09/29 06:22:47;;;;;;;30.27;19.23;;;6.90;99.90;;;;;;4909445;29;20044;-65
2022/09/29 06:25:13;;;;;;;27.77;18.48;;;6.90;99.90;;;;;;4900133;29;20045;-64
2022/09/29 06:27:38;;;;;;;28.58;18.10;;;6.90;99.90;;;;;;4893400;29;20047;-64
2022/09/29 06:30:05;;;;;;;23.38;16.30;;;7.00;99.90;;;;;;4916609;29;20065;-63
2022/09/29 06:32:34;;;;;;;29.40;18.35;;;7.00;99.90;;;;;;4896581;29;20044;-66
2022/09/29 06:37:45;;;;;;;34.08;19.80;;;7.10;99.90;;;;;;4913462;29;20552;-64
2022/09/29 06:40:11;;;;;;;32.08;17.65;;;7.20;99.90;;;;;;4914192;29;20123;-63
2022/09/29 06:42:37;;;;;;;25.05;18.25;;;7.20;99.90;;;;;;4906197;29;20080;-63
2022/09/29 06:45:03;;;;;;;27.02;18.50;;;7.30;99.90;;;;;;4908481;29;20140;-66
2022/09/29 06:47:29;;;;;;;26.00;18.52;;;7.30;99.90;;;;;;4902962;29;20570;-65
2022/09/29 06:49:54;;;;;;;25.38;18.42;;;7.40;99.90;;;;;;4914510;29;20047;-66
2022/09/29 06:52:20;;;;;;;29.95;18.42;;;7.40;99.90;;;;;;4910824;29;20040;-64
2022/09/29 06:54:46;;;;;;;27.30;17.83;;;7.40;99.90;;;;;;4909415;29;20040;-64
2022/09/29 06:57:12;;;;;;;28.30;17.45;;;7.50;99.90;;;;;;4909499;29;20052;-65
2022/09/29 06:59:38;;;;;;;28.33;18.55;;;7.60;99.90;;;;;;4907287;29;20455;-64
2022/09/29 07:02:04;;;;;;;31.42;18.40;;;7.60;99.90;;;;;;4908524;29;20079;-64
2022/09/29 07:04:29;;;;;;;25.33;18.15;;;7.70;99.90;;;;;;4912945;29;20131;-65
2022/09/29 07:06:55;;;;;;;29.75;17.33;;;7.80;99.90;;;;;;4899990;29;20064;-64
2022/09/29 07:09:22;;;;;;;23.90;17.35;;;8.00;99.90;;;;;;4907139;29;20036;-65
2022/09/29 07:11:51;;;;;;;31.23;17.52;;;8.00;99.90;;;;;;4895919;29;20044;-66
2022/09/29 07:14:18;;;;;;;25.98;17.75;;;8.90;99.90;;;;;;4895850;29;20452;-66
2022/09/29 07:16:48;;;;;;;27.60;17.77;;;8.10;99.90;;;;;;4909130;29;20040;-64
2022/09/29 07:19:15;;;;;;;26.38;18.30;;;8.20;99.90;;;;;;4912682;29;20036;-64
2022/09/29 07:21:41;;;;;;;32.75;19.02;;;8.30;99.90;;;;;;4913225;29;20052;-64
2022/09/29 07:24:08;;;;;;;30.90;19.02;;;8.40;99.90;;;;;;4897807;29;20143;-64
2022/09/29 07:26:34;;;;;;;25.48;18.40;;;8.50;99.90;;;;;;4904185;29;20044;-65
2022/09/29 07:29:00;;;;;;;26.88;16.88;;;8.60;99.90;;;;;;4908398;29;20039;-63
2022/09/29 07:31:26;;;;;;;20.42;16.25;;;8.90;99.90;;;;;;4910351;29;20048;-64
2022/09/29 07:33:52;;;;;;;19.10;15.15;;;9.00;99.90;;;;;;4912510;29;20036;-65
2022/09/29 07:36:19;;;;;;;21.83;14.38;;;9.20;99.90;;;;;;4913095;29;20059;-64
2022/09/29 07:38:50;;;;;;;21.10;14.80;;;9.30;99.90;;;;;;4914034;29;20487;-63
2022/09/29 07:41:17;;;;;;;22.63;15.05;;;9.30;99.90;;;;;;4914078;29;20531;-65
2022/09/29 07:43:42;;;;;;;18.42;14.57;;;9.40;99.90;;;;;;4897907;29;20120;-64
2022/09/29 07:46:08;;;;;;;20.90;14.77;;;9.50;99.90;;;;;;4906493;29;20128;-65
2022/09/29 07:48:36;;;;;;;22.02;15.45;;;9.60;99.90;;;;;;4903605;29;20063;-64
2022/09/29 07:51:13;;;;;;;25.55;16.67;;;9.70;99.90;;;;;;4907702;29;20051;-64
2022/09/29 07:53:39;;;;;;;24.55;16.70;;;9.80;99.90;;;;;;4913740;29;20112;-66
2022/09/29 07:56:10;;;;;;;23.52;16.25;;;9.90;99.90;;;;;;4906365;29;20072;-65
2022/09/29 07:58:37;;;;;;;26.45;16.35;;;10.00;99.90;;;;;;4916861;29;20475;-65
2022/09/29 08:01:05;;;;;;;29.05;15.65;;;10.20;99.90;;;;;;4882471;29;20143;-66
2022/09/29 08:03:32;;;;;;;22.58;16.77;;;10.30;99.90;;;;;;4913246;29;20136;-66
2022/09/29 08:05:58;;;;;;;23.88;17.33;;;10.50;99.90;;;;;;4915290;29;20123;-64
2022/09/29 08:08:24;;;;;;;20.83;15.70;;;10.70;99.90;;;;;;4905063;29;20052;-65
2022/09/29 08:10:51;;;;;;;22.27;15.38;;;10.90;99.90;;;;;;4892971;29;20032;-64
2022/09/29 08:13:16;;;;;;;26.67;15.23;;;11.20;99.90;;;;;;4913315;29;20055;-65
2022/09/29 08:15:42;;;;;;;22.50;16.35;;;11.20;99.90;;;;;;4894581;29;20056;-66
2022/09/29 08:18:08;;;;;;;23.52;16.17;;;11.30;99.90;;;;;;4910932;29;20044;-65
2022/09/29 08:20:35;;;;;;;18.40;13.90;;;11.40;99.90;;;;;;4908311;29;20490;-65
2022/09/29 08:23:02;;;;;;;18.77;13.93;;;11.50;99.90;;;;;;4896508;29;20056;-66
2022/09/29 08:25:27;;;;;;;17.75;13.48;;;11.60;99.90;;;;;;4903789;29;20040;-64
2022/09/29 08:27:53;;;;;;;19.05;13.75;;;11.70;99.90;;;;;;4909385;29;20047;-66
2022/09/29 08:30:19;;;;;;;19.85;14.13;;;11.80;99.90;;;;;;4904530;29;20407;-65
2022/09/29 08:32:52;;;;;;;16.95;12.95;;;11.80;99.90;;;;;;4911766;29;20044;-65
2022/09/29 08:35:18;;;;;;;18.45;13.60;;;12.00;99.90;;;;;;4896342;29;20048;-66
2022/09/29 08:37:44;;;;;;;18.40;13.48;;;12.10;99.90;;;;;;4879064;29;20040;-66
2022/09/29 08:40:09;;;;;;;18.65;13.32;;;12.30;99.90;;;;;;4907561;29;20067;-66
2022/09/29 08:42:48;;;;;;;15.80;12.52;;;12.40;99.90;;;;;;4899384;29;20127;-64
2022/09/29 08:45:32;;;;;;;16.50;12.57;;;12.50;99.90;;;;;;4910325;29;20048;-65
2022/09/29 08:48:15;;;;;;;17.63;11.68;;;12.70;99.90;;;;;;4895701;29;20055;-66
2022/09/29 08:50:50;;;;;;;18.08;10.38;;;12.90;99.90;;;;;;4909111;29;20057;-65
2022/09/29 08:53:20;;;;;;;14.63;10.93;;;13.00;99.90;;;;;;4901488;29;20059;-65
2022/09/29 08:56:05;;;;;;;11.80;9.90;;;13.00;99.90;;;;;;4911566;29;20048;-65
2022/09/29 08:58:32;;;;;;;14.75;10.23;;;13.20;99.90;;;;;;4917025;29;20091;-66
2022/09/29 09:01:09;;;;;;;13.70;9.73;;;13.30;99.90;;;;;;4911576;29;20056;-65
2022/09/29 09:04:04;;;;;;;13.55;9.57;;;13.40;99.90;;;;;;4907683;29;20105;-64
2022/09/29 09:06:50;;;;;;;16.85;9.63;;;13.50;99.90;;;;;;4915337;29;20136;-66
2022/09/29 09:09:51;;;;;;;13.10;9.90;;;13.60;99.90;;;;;;4916859;29;20056;-65
2022/09/29 09:12:28;;;;;;;13.77;8.88;;;13.80;99.90;;;;;;4888501;29;20059;-65
2022/09/29 09:15:45;;;;;;;14.02;8.90;;;14.00;99.90;;;;;;4903276;29;20044;-65
2022/09/29 09:18:37;;;;;;;10.38;7.38;;;14.00;99.90;;;;;;4873860;29;20052;-65
2022/09/29 09:21:12;;;;;;;9.70;7.53;;;14.10;99.90;;;;;;4897921;29;20056;-67
2022/09/29 09:24:17;;;;;;;11.35;8.90;;;14.20;99.90;;;;;;4911950;29;20048;-66
2022/09/29 09:26:45;;;;;;;12.23;8.60;;;14.40;99.90;;;;;;4892915;29;20048;-66
2022/09/29 09:29:14;;;;;;;11.15;7.90;;;14.60;99.90;;;;;;4908959;29;20510;-67
2022/09/29 09:31:45;;;;;;;10.77;7.85;;;14.80;99.90;;;;;;4904963;29;20071;-67
2022/09/29 09:34:24;;;;;;;10.27;7.90;;;15.00;99.90;;;;;;4869431;29;20126;-65
2022/09/29 09:36:57;;;;;;;11.27;7.88;;;15.10;99.90;;;;;;4893282;29;20115;-66
2022/09/29 09:39:35;;;;;;;11.20;6.25;;;15.20;99.90;;;;;;4906788;29;20041;-65
2022/09/29 09:42:07;;;;;;;8.18;5.47;;;15.40;99.90;;;;;;4893571;29;20044;-66
2022/09/29 09:44:38;;;;;;;13.35;5.90;;;15.40;99.90;;;;;;4910263;29;20403;-67
2022/09/29 09:47:23;;;;;;;6.65;4.35;;;15.50;99.90;;;;;;4910386;29;20554;-66
2022/09/29 09:49:56;;;;;;;9.55;5.28;;;15.60;99.90;;;;;;4911884;29;20049;-66
2022/09/29 09:52:35;;;;;;;8.45;4.20;;;15.70;99.90;;;;;;4911315;29;20605;-65
2022/09/29 09:55:09;;;;;;;5.22;3.10;;;15.90;99.90;;;;;;4904559;29;20040;-66
2022/09/29 09:57:59;;;;;;;9.32;3.20;;;16.10;99.90;;;;;;4888071;29;20083;-66
2022/09/29 10:00:27;;;;;;;;;;;16.20;99.90;;;;;;4909438;29;20358;-66
2022/09/29 10:02:55;;;;;;;5.37;3.50;;;16.30;99.90;;;;;;4914515;29;19997;-66
2022/09/29 10:05:25;;;;;;;4.93;3.20;;;16.60;99.90;;;;;;4913640;29;20040;-67
2022/09/29 10:07:52;;;;;;;3.95;2.58;;;16.90;99.90;;;;;;4905698;29;20398;-66
2022/09/29 10:10:23;;;;;;;3.97;2.30;;;17.10;99.90;;;;;;4886540;29;20055;-66
2022/09/29 10:13:12;;;;;;;5.05;2.40;;;17.30;99.90;;;;;;4910662;29;20394;-66
2022/09/29 10:15:58;;;;;;;5.68;3.08;;;17.40;99.90;;;;;;4879742;29;20144;-66
2022/09/29 10:18:27;;;;;;;5.32;2.65;;;17.60;99.90;;;;;;4915426;29;20051;-66
2022/09/29 10:20:53;;;;;;;5.38;2.75;;;17.90;99.90;;;;;;4903114;29;20048;-70
2022/09/29 10:23:34;;;;;;;3.13;2.00;;;18.10;99.90;;;;;;4897082;29;20051;-67
2022/09/29 10:26:13;;;;;;;3.13;2.20;;;18.40;99.90;;;;;;4907084;29;20095;-67
2022/09/29 10:28:57;;;;;;;3.80;2.78;;;18.60;99.90;;;;;;4912073;29;20037;-65
2022/09/29 10:31:35;;;;;;;3.45;2.40;;;18.60;99.90;;;;;;4912138;29;20044;-67
2022/09/29 10:34:15;;;;;;;3.67;2.22;;;18.40;99.90;;;;;;4890925;29;20052;-66
2022/09/29 10:37:16;;;;;;;5.57;2.60;;;18.40;99.90;;;;;;4908183;29;20455;-67
2022/09/29 10:39:44;;;;;;;5.85;2.63;;;18.60;99.90;;;;;;4906664;29;20040;-66
2022/09/29 10:42:16;;;;;;;4.93;3.42;;;18.90;99.90;;;;;;4913711;29;20052;-65
2022/09/29 10:44:43;;;;;;;5.40;2.67;;;19.30;99.90;;;;;;4905034;29;20067;-67
2022/09/29 10:47:14;;;;;;;4.25;2.88;;;19.70;99.90;;;;;;4914113;29;20066;-65
2022/09/29 10:49:40;;;;;;;8.90;3.20;;;19.90;99.90;;;;;;4898514;29;20047;-67
2022/09/29 10:52:24;;;;;;;6.20;3.30;;;19.70;99.90;;;;;;4909281;29;20107;-66
2022/09/29 10:54:59;;;;;;;4.65;2.90;;;20.00;99.90;;;;;;4907339;29;20040;-67
2022/09/29 10:57:27;;;;;;;3.72;2.00;;;20.50;99.90;;;;;;4903776;29;20401;-66
2022/09/29 10:59:55;;;;;;;3.10;1.88;;;20.80;99.70;;;;;;4914335;29;20071;-67
2022/09/29 11:02:23;;;;;;;;;;;21.00;99.90;;;;;;4914160;29;20463;-67
2022/09/29 11:04:50;;;;;;;4.07;1.70;;;21.30;97.20;;;;;;4903656;29;19920;-66
2022/09/29 11:07:16;;;;;;;2.88;1.63;;;21.40;97.10;;;;;;4912941;29;20120;-66
2022/09/29 11:09:43;;;;;;;2.88;1.90;;;21.70;95.70;;;;;;4906267;29;20040;-66
2022/09/29 11:12:30;;;;;;;;;;;21.40;91.10;;;;;;4915324;29;20054;-65
2022/09/29 11:14:57;;;;;;;2.88;1.48;;;20.90;91.60;;;;;;4913091;29;20373;-65
2022/09/29 11:17:52;;;;;;;1.98;1.38;;;20.70;91.70;;;;;;4897190;29;20044;-66
2022/09/29 11:20:19;;;;;;;4.38;2.17;;;20.20;93.10;;;;;;4898686;29;20138;-67
2022/09/29 11:23:07;;;;;;;2.92;1.90;;;19.80;95.20;;;;;;4897493;29;20051;-65
2022/09/29 11:26:06;;;;;;;4.57;1.83;;;19.70;96.30;;;;;;4874563;29;20107;-66
2022/09/29 11:29:08;;;;;;;4.10;1.85;;;19.40;95.80;;;;;;4892470;29;20127;-65
2022/09/29 11:31:49;;;;;;;2.50;1.70;;;19.20;97.10;;;;;;4846742;29;20097;-66
2022/09/29 11:34:40;;;;;;;3.00;2.10;;;18.90;97.00;;;;;;4876696;29;20470;-64
2022/09/29 11:37:27;;;;;;;3.53;1.88;;;18.90;98.20;;;;;;4886994;29;20160;-65
2022/09/29 11:40:22;;;;;;;3.50;2.08;;;19.30;97.20;;;;;;4915146;29;20039;-65
2022/09/29 11:43:25;;;;;;;3.83;2.20;;;19.90;96.80;;;;;;4908933;29;20059;-66
2022/09/29 11:46:08;;;;;;;3.45;2.28;;;20.50;96.20;;;;;;4894513;29;20059;-64
2022/09/29 11:49:03;;;;;;;4.15;1.67;;;20.60;92.70;;;;;;4896025;29;20437;-66
2022/09/29 11:51:52;;;;;;;2.63;1.40;;;20.10;91.20;;;;;;4902050;29;20479;-66
2022/09/29 11:54:50;;;;;;;2.50;1.20;;;19.50;92.00;;;;;;4907926;29;20131;-66
2022/09/29 11:57:47;;;;;;;4.20;1.45;;;19.20;94.10;;;;;;4896465;29;20393;-64
2022/09/29 12:00:18;;;;;;;2.55;1.40;;;19.90;95.10;;;;;;4914131;29;20159;-65
2022/09/29 12:03:19;;;;;;;5.30;1.40;;;20.80;93.90;;;;;;4895377;29;20070;-66
2022/09/29 12:05:54;;;;;;;3.67;1.50;;;21.40;92.70;;;;;;4914249;29;20384;-66
2022/09/29 12:08:37;;;;;;;2.33;1.50;;;21.60;94.50;;;;;;4912533;29;20378;-66
2022/09/29 12:11:10;;;;;;;2.45;1.40;;;21.80;91.50;;;;;;4913503;29;20169;-65
2022/09/29 12:13:55;;;;;;;3.60;1.30;;;22.00;93.20;;;;;;4912853;29;20530;-67
2022/09/29 12:16:36;;;;;;;2.40;0.90;;;22.70;91.70;;;;;;4899802;29;20044;-66
2022/09/29 12:19:15;;;;;;;1.75;1.05;;;22.80;87.20;;;;;;4916451;29;20077;-66
2022/09/29 12:21:49;;;;;;;3.28;0.90;;;22.50;83.10;;;;;;4909475;29;20413;-65
2022/09/29 12:24:46;;;;;;;4.95;1.10;;;21.50;85.80;;;;;;4904841;29;20139;-66
2022/09/29 12:27:18;;;;;;;4.35;1.30;;;20.60;88.10;;;;;;4904918;29;20051;-65
2022/09/29 12:29:55;;;;;;;1.63;1.05;;;20.00;89.70;;;;;;4899491;29;20145;-65
2022/09/29 12:32:31;;;;;;;3.53;1.20;;;19.70;88.50;;;;;;4916428;29;20054;-65
2022/09/29 12:35:11;;;;;;;2.08;1.30;;;18.70;91.10;;;;;;4916678;29;20123;-64
2022/09/29 12:37:46;;;;;;;2.08;1.30;;;18.30;91.10;;;;;;4912433;29;20048;-64
2022/09/29 12:44:21;;;;;;;4.10;1.20;;;17.40;92.70;;;;;;4908793;29;20039;-65
2022/09/29 12:47:02;;;;;;;2.25;0.95;;;16.90;93.90;;;;;;4916497;29;20055;-63
2022/09/29 12:49:43;;;;;;;2.80;1.08;;;16.60;94.10;;;;;;4908033;29;20490;-66
2022/09/29 12:52:17;;;;;;;2.13;0.75;;;16.30;94.50;;;;;;4915209;29;20048;-65
2022/09/29 12:54:54;;;;;;;2.83;1.05;;;16.10;94.90;;;;;;4913599;29;20052;-67
2022/09/29 12:57:31;;;;;;;2.75;0.80;;;16.00;95.30;;;;;;4904436;29;20439;-65
2022/09/29 13:00:11;;;;;;;1.67;0.95;;;15.90;95.90;;;;;;4913829;29;20051;-65
2022/09/29 13:02:37;;;;;;;2.03;1.10;;;15.80;95.80;;;;;;4914572;29;20143;-67
2022/09/29 13:05:49;;;;;;;2.72;1.23;;;15.70;96.60;;;;;;4915288;29;20075;-63
2022/09/29 13:08:17;;;;;;;2.13;1.10;;;15.60;97.50;;;;;;4909701;29;20051;-64
2022/09/29 13:10:55;;;;;;;2.05;1.10;;;15.40;98.10;;;;;;4915659;29;20113;-66
2022/09/29 13:13:48;;;;;;;1.75;0.70;;;15.30;98.10;;;;;;4916497;29;20158;-65
2022/09/29 13:16:33;;;;;;;1.80;0.88;;;15.20;98.80;;;;;;4915146;29;20073;-64
2022/09/29 13:19:12;;;;;;;1.70;0.95;;;15.20;98.90;;;;;;4916524;29;20555;-65
2022/09/29 13:21:38;;;;;;;6.97;1.30;;;15.20;99.10;;;;;;4912214;29;20056;-65
2022/09/29 13:24:26;;;;;;;1.58;1.00;;;15.20;99.30;;;;;;4914389;29;20406;-64
2022/09/29 13:26:54;;;;;;;1.38;0.90;;;15.20;99.40;;;;;;4913690;29;20040;-66
2022/09/29 13:29:26;;;;;;;3.22;1.10;;;15.10;99.90;;;;;;4916905;29;20510;-66
2022/09/29 13:31:55;;;;;;;3.90;1.27;;;15.10;99.90;;;;;;4897726;29;20426;-65
2022/09/29 13:34:34;;;;;;;2.47;1.30;;;15.20;99.90;;;;;;4911954;29;20044;-64
2022/09/29 13:37:21;;;;;;;4.68;1.38;;;15.20;99.90;;;;;;4913743;29;20151;-65
2022/09/29 13:39:55;;;;;;;3.58;1.30;;;15.10;99.90;;;;;;4898514;29;20486;-66
2022/09/29 13:42:40;;;;;;;2.28;1.10;;;15.00;99.90;;;;;;4914403;29;20460;-65
2022/09/29 13:45:27;;;;;;;2.92;1.27;;;15.00;99.90;;;;;;4909883;29;20121;-66